sensor_id;sensor_type;location;lat;lon;timestamp;P1;durP1;ratioP1;P2;durP2;ratioP2
48911;SDS011;34722;52.108;5.044;2023-06-14T00:01:00;5.35;;;4.15;;
48911;SDS011;34722;52.108;5.044;2023-06-14T00:03:27;9.90;;;4.80;;
48911;SDS011;34722;52.108;5.044;2023-06-14T00:05:54;7.80;;;4.20;;
48911;SDS011;34722;52.108;5.044;2023-06-14T00:08:20;7.10;;;4.85;;
48911;SDS011;34722;52.108;5.044;2023-06-14T00:10:47;6.80;;;4.85;;
48911;SDS011;34722;52.108;5.044;2023-06-14T00:13:13;8.52;;;4.28;;
48911;SDS011;34722;52.108;5.044;2023-06-14T00:15:39;11.80;;;4.30;;
48911;SDS011;34722;52.108;5.044;2023-06-14T00:18:05;6.13;;;3.78;;
48911;SDS011;34722;52.108;5.044;2023-06-14T00:20:32;8.70;;;4.10;;
48911;SDS011;34722;52.108;5.044;2023-06-14T00:23:01;7.28;;;4.00;;
48911;SDS011;34722;52.108;5.044;2023-06-14T00:25:27;7.20;;;3.95;;
48911;SDS011;34722;52.108;5.044;2023-06-14T00:27:57;5.90;;;3.78;;
48911;SDS011;34722;52.108;5.044;2023-06-14T00:30:23;9.38;;;4.32;;
48911;SDS011;34722;52.108;5.044;2023-06-14T00:32:49;9.10;;;4.47;;
48911;SDS011;34722;52.108;5.044;2023-06-14T00:35:16;5.40;;;4.22;;
48911;SDS011;34722;52.108;5.044;2023-06-14T00:37:45;7.93;;;4.80;;
48911;SDS011;34722;52.108;5.044;2023-06-14T00:40:11;7.63;;;5.32;;
48911;SDS011;34722;52.108;5.044;2023-06-14T00:42:36;7.70;;;4.32;;
48911;SDS011;34722;52.108;5.044;2023-06-14T00:45:02;5.55;;;4.20;;
48911;SDS011;34722;52.108;5.044;2023-06-14T00:47:28;7.78;;;4.55;;
48911;SDS011;34722;52.108;5.044;2023-06-14T00:49:54;7.93;;;4.28;;
48911;SDS011;34722;52.108;5.044;2023-06-14T00:52:21;9.63;;;4.65;;
48911;SDS011;34722;52.108;5.044;2023-06-14T00:54:49;12.38;;;3.78;;
48911;SDS011;34722;52.108;5.044;2023-06-14T00:57:14;5.38;;;4.20;;
48911;SDS011;34722;52.108;5.044;2023-06-14T00:59:44;5.68;;;4.47;;
48911;SDS011;34722;52.108;5.044;2023-06-14T01:02:12;8.73;;;4.90;;
48911;SDS011;34722;52.108;5.044;2023-06-14T01:04:39;8.02;;;4.10;;
48911;SDS011;34722;52.108;5.044;2023-06-14T01:07:28;13.05;;;6.03;;
48911;SDS011;34722;52.108;5.044;2023-06-14T01:15:54;7.68;;;4.63;;
48911;SDS011;34722;52.108;5.044;2023-06-14T01:18:21;6.22;;;4.10;;
48911;SDS011;34722;52.108;5.044;2023-06-14T01:20:49;7.30;;;4.07;;
48911;SDS011;34722;52.108;5.044;2023-06-14T01:23:16;9.27;;;4.25;;
48911;SDS011;34722;52.108;5.044;2023-06-14T01:25:45;13.23;;;5.43;;
48911;SDS011;34722;52.108;5.044;2023-06-14T01:28:12;6.10;;;4.10;;
48911;SDS011;34722;52.108;5.044;2023-06-14T01:30:40;9.27;;;4.13;;
48911;SDS011;34722;52.108;5.044;2023-06-14T01:33:14;12.55;;;4.75;;
48911;SDS011;34722;52.108;5.044;2023-06-14T01:35:43;7.47;;;4.20;;
48911;SDS011;34722;52.108;5.044;2023-06-14T01:38:10;6.57;;;4.20;;
48911;SDS011;34722;52.108;5.044;2023-06-14T01:40:39;7.97;;;4.28;;
48911;SDS011;34722;52.108;5.044;2023-06-14T01:43:05;6.90;;;4.40;;
48911;SDS011;34722;52.108;5.044;2023-06-14T01:45:35;11.43;;;4.57;;
48911;SDS011;34722;52.108;5.044;2023-06-14T01:48:01;12.40;;;4.28;;
48911;SDS011;34722;52.108;5.044;2023-06-14T01:50:29;11.43;;;4.60;;
48911;SDS011;34722;52.108;5.044;2023-06-14T01:52:55;5.85;;;4.13;;
48911;SDS011;34722;52.108;5.044;2023-06-14T01:55:21;6.40;;;4.07;;
48911;SDS011;34722;52.108;5.044;2023-06-14T01:57:47;7.55;;;4.32;;
48911;SDS011;34722;52.108;5.044;2023-06-14T02:00:13;7.40;;;4.05;;
48911;SDS011;34722;52.108;5.044;2023-06-14T02:02:40;9.38;;;4.55;;
48911;SDS011;34722;52.108;5.044;2023-06-14T02:05:06;11.18;;;5.43;;
48911;SDS011;34722;52.108;5.044;2023-06-14T02:07:32;5.15;;;3.80;;
48911;SDS011;34722;52.108;5.044;2023-06-14T02:09:58;5.13;;;3.47;;
48911;SDS011;34722;52.108;5.044;2023-06-14T02:12:24;7.80;;;4.35;;
48911;SDS011;34722;52.108;5.044;2023-06-14T02:14:50;5.03;;;4.20;;
48911;SDS011;34722;52.108;5.044;2023-06-14T02:17:16;12.18;;;3.95;;
48911;SDS011;34722;52.108;5.044;2023-06-14T02:19:42;4.65;;;3.50;;
48911;SDS011;34722;52.108;5.044;2023-06-14T02:22:07;5.22;;;3.97;;
48911;SDS011;34722;52.108;5.044;2023-06-14T02:24:34;6.40;;;3.90;;
48911;SDS011;34722;52.108;5.044;2023-06-14T02:27:00;9.05;;;4.05;;
48911;SDS011;34722;52.108;5.044;2023-06-14T02:29:26;9.90;;;4.35;;
48911;SDS011;34722;52.108;5.044;2023-06-14T02:31:52;7.50;;;3.72;;
48911;SDS011;34722;52.108;5.044;2023-06-14T02:34:17;10.30;;;3.90;;
48911;SDS011;34722;52.108;5.044;2023-06-14T02:36:44;6.50;;;3.80;;
48911;SDS011;34722;52.108;5.044;2023-06-14T02:39:10;8.60;;;4.60;;
48911;SDS011;34722;52.108;5.044;2023-06-14T02:41:36;8.18;;;3.88;;
48911;SDS011;34722;52.108;5.044;2023-06-14T02:44:02;4.35;;;3.47;;
48911;SDS011;34722;52.108;5.044;2023-06-14T02:46:28;8.00;;;4.55;;
48911;SDS011;34722;52.108;5.044;2023-06-14T02:48:53;6.53;;;3.83;;
48911;SDS011;34722;52.108;5.044;2023-06-14T02:51:19;9.27;;;4.47;;
48911;SDS011;34722;52.108;5.044;2023-06-14T02:53:44;7.63;;;3.75;;
48911;SDS011;34722;52.108;5.044;2023-06-14T02:56:10;4.57;;;3.80;;
48911;SDS011;34722;52.108;5.044;2023-06-14T02:58:36;5.97;;;3.72;;
48911;SDS011;34722;52.108;5.044;2023-06-14T03:01:04;5.15;;;3.53;;
48911;SDS011;34722;52.108;5.044;2023-06-14T03:03:33;8.35;;;4.07;;
48911;SDS011;34722;52.108;5.044;2023-06-14T03:05:58;5.88;;;4.68;;
48911;SDS011;34722;52.108;5.044;2023-06-14T03:08:29;7.28;;;4.10;;
48911;SDS011;34722;52.108;5.044;2023-06-14T03:13:30;5.50;;;4.15;;
48911;SDS011;34722;52.108;5.044;2023-06-14T03:15:57;8.38;;;4.20;;
48911;SDS011;34722;52.108;5.044;2023-06-14T03:18:23;9.77;;;3.75;;
48911;SDS011;34722;52.108;5.044;2023-06-14T03:20:48;6.53;;;3.90;;
48911;SDS011;34722;52.108;5.044;2023-06-14T03:23:16;6.78;;;4.35;;
48911;SDS011;34722;52.108;5.044;2023-06-14T03:25:41;5.25;;;4.03;;
48911;SDS011;34722;52.108;5.044;2023-06-14T03:28:07;13.02;;;4.18;;
48911;SDS011;34722;52.108;5.044;2023-06-14T03:30:33;6.55;;;3.55;;
48911;SDS011;34722;52.108;5.044;2023-06-14T03:32:58;6.50;;;3.80;;
48911;SDS011;34722;52.108;5.044;2023-06-14T03:35:26;8.73;;;4.15;;
48911;SDS011;34722;52.108;5.044;2023-06-14T03:37:52;6.97;;;3.58;;
48911;SDS011;34722;52.108;5.044;2023-06-14T03:40:18;5.43;;;3.75;;
48911;SDS011;34722;52.108;5.044;2023-06-14T03:42:45;7.45;;;4.10;;
48911;SDS011;34722;52.108;5.044;2023-06-14T03:45:10;8.45;;;3.95;;
48911;SDS011;34722;52.108;5.044;2023-06-14T03:47:36;7.05;;;3.50;;
48911;SDS011;34722;52.108;5.044;2023-06-14T03:50:05;5.97;;;4.32;;
48911;SDS011;34722;52.108;5.044;2023-06-14T03:52:31;6.75;;;4.35;;
48911;SDS011;34722;52.108;5.044;2023-06-14T03:54:57;7.00;;;4.45;;
48911;SDS011;34722;52.108;5.044;2023-06-14T03:57:25;7.80;;;4.32;;
48911;SDS011;34722;52.108;5.044;2023-06-14T03:59:51;5.10;;;4.03;;
48911;SDS011;34722;52.108;5.044;2023-06-14T04:02:17;7.18;;;3.92;;
48911;SDS011;34722;52.108;5.044;2023-06-14T04:04:43;6.63;;;4.03;;
48911;SDS011;34722;52.108;5.044;2023-06-14T04:07:13;8.38;;;4.30;;
48911;SDS011;34722;52.108;5.044;2023-06-14T04:09:39;7.63;;;3.78;;
48911;SDS011;34722;52.108;5.044;2023-06-14T04:12:06;7.50;;;4.00;;
48911;SDS011;34722;52.108;5.044;2023-06-14T04:14:33;9.35;;;4.47;;
48911;SDS011;34722;52.108;5.044;2023-06-14T04:16:59;6.55;;;3.90;;
48911;SDS011;34722;52.108;5.044;2023-06-14T04:19:26;5.90;;;4.28;;
48911;SDS011;34722;52.108;5.044;2023-06-14T04:21:52;7.55;;;4.07;;
48911;SDS011;34722;52.108;5.044;2023-06-14T04:24:17;5.28;;;4.03;;
48911;SDS011;34722;52.108;5.044;2023-06-14T04:26:43;10.35;;;4.43;;
48911;SDS011;34722;52.108;5.044;2023-06-14T04:29:13;6.75;;;4.40;;
48911;SDS011;34722;52.108;5.044;2023-06-14T04:31:41;11.60;;;4.13;;
48911;SDS011;34722;52.108;5.044;2023-06-14T04:34:07;5.95;;;3.78;;
48911;SDS011;34722;52.108;5.044;2023-06-14T04:36:33;8.18;;;3.95;;
48911;SDS011;34722;52.108;5.044;2023-06-14T04:39:00;7.53;;;3.80;;
48911;SDS011;34722;52.108;5.044;2023-06-14T04:41:28;7.28;;;4.07;;
48911;SDS011;34722;52.108;5.044;2023-06-14T04:43:56;6.55;;;3.83;;
48911;SDS011;34722;52.108;5.044;2023-06-14T04:46:26;9.23;;;4.22;;
48911;SDS011;34722;52.108;5.044;2023-06-14T04:48:53;5.50;;;4.00;;
48911;SDS011;34722;52.108;5.044;2023-06-14T04:51:19;12.15;;;3.92;;
48911;SDS011;34722;52.108;5.044;2023-06-14T04:53:47;7.43;;;3.92;;
48911;SDS011;34722;52.108;5.044;2023-06-14T04:56:14;6.28;;;3.95;;
48911;SDS011;34722;52.108;5.044;2023-06-14T04:58:41;8.43;;;3.42;;
48911;SDS011;34722;52.108;5.044;2023-06-14T05:01:08;10.05;;;4.82;;
48911;SDS011;34722;52.108;5.044;2023-06-14T05:03:34;11.50;;;4.45;;
48911;SDS011;34722;52.108;5.044;2023-06-14T05:06:00;8.13;;;3.70;;
48911;SDS011;34722;52.108;5.044;2023-06-14T05:08:25;5.78;;;4.10;;
48911;SDS011;34722;52.108;5.044;2023-06-14T05:10:51;6.32;;;4.32;;
48911;SDS011;34722;52.108;5.044;2023-06-14T05:13:17;11.10;;;4.15;;
48911;SDS011;34722;52.108;5.044;2023-06-14T05:15:43;8.45;;;4.35;;
48911;SDS011;34722;52.108;5.044;2023-06-14T05:18:09;7.07;;;3.60;;
48911;SDS011;34722;52.108;5.044;2023-06-14T05:20:35;7.20;;;4.43;;
48911;SDS011;34722;52.108;5.044;2023-06-14T05:23:02;8.23;;;4.38;;
48911;SDS011;34722;52.108;5.044;2023-06-14T05:25:28;7.30;;;3.97;;
48911;SDS011;34722;52.108;5.044;2023-06-14T05:27:53;5.45;;;4.20;;
48911;SDS011;34722;52.108;5.044;2023-06-14T05:30:19;7.47;;;3.83;;
48911;SDS011;34722;52.108;5.044;2023-06-14T05:32:46;13.85;;;4.20;;
48911;SDS011;34722;52.108;5.044;2023-06-14T05:35:11;5.32;;;4.10;;
48911;SDS011;34722;52.108;5.044;2023-06-14T05:37:37;6.28;;;4.40;;
48911;SDS011;34722;52.108;5.044;2023-06-14T05:40:03;7.65;;;4.28;;
48911;SDS011;34722;52.108;5.044;2023-06-14T05:42:33;7.47;;;5.00;;
48911;SDS011;34722;52.108;5.044;2023-06-14T05:44:59;6.05;;;3.72;;
48911;SDS011;34722;52.108;5.044;2023-06-14T05:47:31;10.35;;;4.13;;
48911;SDS011;34722;52.108;5.044;2023-06-14T05:49:57;5.25;;;3.72;;
48911;SDS011;34722;52.108;5.044;2023-06-14T05:52:22;6.22;;;4.10;;
48911;SDS011;34722;52.108;5.044;2023-06-14T05:54:48;5.57;;;3.67;;
48911;SDS011;34722;52.108;5.044;2023-06-14T05:57:14;10.82;;;4.72;;
48911;SDS011;34722;52.108;5.044;2023-06-14T05:59:40;5.80;;;3.97;;
48911;SDS011;34722;52.108;5.044;2023-06-14T06:02:05;7.18;;;4.22;;
48911;SDS011;34722;52.108;5.044;2023-06-14T06:04:31;10.55;;;4.13;;
48911;SDS011;34722;52.108;5.044;2023-06-14T06:06:56;7.40;;;4.10;;
48911;SDS011;34722;52.108;5.044;2023-06-14T06:09:22;13.77;;;4.00;;
48911;SDS011;34722;52.108;5.044;2023-06-14T06:11:48;8.00;;;4.30;;
48911;SDS011;34722;52.108;5.044;2023-06-14T06:14:13;11.57;;;4.40;;
48911;SDS011;34722;52.108;5.044;2023-06-14T06:16:39;14.10;;;4.28;;
48911;SDS011;34722;52.108;5.044;2023-06-14T06:19:05;13.35;;;3.58;;
48911;SDS011;34722;52.108;5.044;2023-06-14T06:21:30;9.43;;;4.50;;
48911;SDS011;34722;52.108;5.044;2023-06-14T06:23:56;10.00;;;4.32;;
48911;SDS011;34722;52.108;5.044;2023-06-14T06:26:22;12.07;;;4.10;;
48911;SDS011;34722;52.108;5.044;2023-06-14T06:28:48;8.18;;;4.03;;
48911;SDS011;34722;52.108;5.044;2023-06-14T06:31:13;9.10;;;4.07;;
48911;SDS011;34722;52.108;5.044;2023-06-14T06:33:40;6.65;;;4.00;;
48911;SDS011;34722;52.108;5.044;2023-06-14T06:36:05;8.82;;;4.45;;
48911;SDS011;34722;52.108;5.044;2023-06-14T06:38:31;7.75;;;4.25;;
48911;SDS011;34722;52.108;5.044;2023-06-14T06:40:57;9.18;;;4.22;;
48911;SDS011;34722;52.108;5.044;2023-06-14T06:43:22;8.98;;;4.55;;
48911;SDS011;34722;52.108;5.044;2023-06-14T06:45:48;7.15;;;4.10;;
48911;SDS011;34722;52.108;5.044;2023-06-14T06:48:13;7.60;;;4.15;;
48911;SDS011;34722;52.108;5.044;2023-06-14T06:50:40;9.40;;;4.60;;
48911;SDS011;34722;52.108;5.044;2023-06-14T06:53:06;8.93;;;5.60;;
48911;SDS011;34722;52.108;5.044;2023-06-14T06:55:32;7.85;;;4.13;;
48911;SDS011;34722;52.108;5.044;2023-06-14T06:57:57;7.82;;;4.38;;
48911;SDS011;34722;52.108;5.044;2023-06-14T07:00:24;6.25;;;3.92;;
48911;SDS011;34722;52.108;5.044;2023-06-14T07:02:50;5.35;;;3.60;;
48911;SDS011;34722;52.108;5.044;2023-06-14T07:05:16;7.88;;;4.10;;
48911;SDS011;34722;52.108;5.044;2023-06-14T07:07:41;5.38;;;3.97;;
48911;SDS011;34722;52.108;5.044;2023-06-14T07:10:07;10.43;;;3.75;;
48911;SDS011;34722;52.108;5.044;2023-06-14T07:12:32;5.05;;;3.97;;
48911;SDS011;34722;52.108;5.044;2023-06-14T07:14:58;10.70;;;4.07;;
48911;SDS011;34722;52.108;5.044;2023-06-14T07:17:24;5.82;;;4.35;;
48911;SDS011;34722;52.108;5.044;2023-06-14T07:19:50;7.80;;;4.03;;
48911;SDS011;34722;52.108;5.044;2023-06-14T07:22:16;7.47;;;4.00;;
48911;SDS011;34722;52.108;5.044;2023-06-14T07:24:42;8.52;;;4.78;;
48911;SDS011;34722;52.108;5.044;2023-06-14T07:27:08;7.30;;;4.25;;
48911;SDS011;34722;52.108;5.044;2023-06-14T07:29:35;6.10;;;4.10;;
48911;SDS011;34722;52.108;5.044;2023-06-14T07:32:00;9.35;;;3.75;;
48911;SDS011;34722;52.108;5.044;2023-06-14T07:34:26;7.70;;;4.22;;
48911;SDS011;34722;52.108;5.044;2023-06-14T07:36:52;7.78;;;4.28;;
48911;SDS011;34722;52.108;5.044;2023-06-14T07:39:19;7.20;;;4.07;;
48911;SDS011;34722;52.108;5.044;2023-06-14T07:41:44;5.93;;;4.18;;
48911;SDS011;34722;52.108;5.044;2023-06-14T07:44:10;8.98;;;3.60;;
48911;SDS011;34722;52.108;5.044;2023-06-14T07:46:37;5.70;;;4.30;;
48911;SDS011;34722;52.108;5.044;2023-06-14T07:49:03;7.57;;;4.43;;
48911;SDS011;34722;52.108;5.044;2023-06-14T07:51:28;7.75;;;4.18;;
48911;SDS011;34722;52.108;5.044;2023-06-14T07:53:54;7.45;;;4.18;;
48911;SDS011;34722;52.108;5.044;2023-06-14T07:56:20;6.60;;;3.88;;
48911;SDS011;34722;52.108;5.044;2023-06-14T07:58:46;4.55;;;4.15;;
48911;SDS011;34722;52.108;5.044;2023-06-14T08:01:12;4.70;;;4.20;;
48911;SDS011;34722;52.108;5.044;2023-06-14T08:03:38;4.82;;;4.20;;
48911;SDS011;34722;52.108;5.044;2023-06-14T08:06:04;5.28;;;4.78;;
48911;SDS011;34722;52.108;5.044;2023-06-14T08:11:05;5.97;;;4.68;;
48911;SDS011;34722;52.108;5.044;2023-06-14T08:13:34;3.85;;;3.55;;
48911;SDS011;34722;52.108;5.044;2023-06-14T08:16:00;7.90;;;4.18;;
48911;SDS011;34722;52.108;5.044;2023-06-14T08:18:30;5.35;;;3.80;;
48911;SDS011;34722;52.108;5.044;2023-06-14T08:20:56;5.43;;;3.75;;
48911;SDS011;34722;52.108;5.044;2023-06-14T08:23:23;6.18;;;3.78;;
48911;SDS011;34722;52.108;5.044;2023-06-14T08:25:48;4.93;;;4.15;;
48911;SDS011;34722;52.108;5.044;2023-06-14T08:28:15;6.93;;;3.97;;
48911;SDS011;34722;52.108;5.044;2023-06-14T08:30:43;10.73;;;4.15;;
48911;SDS011;34722;52.108;5.044;2023-06-14T08:33:09;6.25;;;3.30;;
48911;SDS011;34722;52.108;5.044;2023-06-14T08:35:36;7.95;;;3.53;;
48911;SDS011;34722;52.108;5.044;2023-06-14T08:38:06;6.07;;;3.80;;
48911;SDS011;34722;52.108;5.044;2023-06-14T08:40:36;6.18;;;3.47;;
48911;SDS011;34722;52.108;5.044;2023-06-14T08:43:03;10.55;;;3.58;;
48911;SDS011;34722;52.108;5.044;2023-06-14T08:45:31;7.25;;;3.88;;
48911;SDS011;34722;52.108;5.044;2023-06-14T08:47:59;6.82;;;3.65;;
48911;SDS011;34722;52.108;5.044;2023-06-14T08:50:26;9.27;;;4.13;;
48911;SDS011;34722;52.108;5.044;2023-06-14T08:53:00;6.00;;;3.33;;
48911;SDS011;34722;52.108;5.044;2023-06-14T08:55:28;8.02;;;3.42;;
48911;SDS011;34722;52.108;5.044;2023-06-14T08:58:01;9.00;;;3.47;;
48911;SDS011;34722;52.108;5.044;2023-06-14T09:00:28;5.82;;;3.47;;
48911;SDS011;34722;52.108;5.044;2023-06-14T09:03:00;4.40;;;3.25;;
48911;SDS011;34722;52.108;5.044;2023-06-14T09:05:28;7.50;;;3.83;;
48911;SDS011;34722;52.108;5.044;2023-06-14T09:07:57;10.07;;;4.38;;
48911;SDS011;34722;52.108;5.044;2023-06-14T09:10:25;5.30;;;3.22;;
48911;SDS011;34722;52.108;5.044;2023-06-14T09:13:03;3.78;;;3.28;;
48911;SDS011;34722;52.108;5.044;2023-06-14T09:15:35;4.63;;;2.92;;
48911;SDS011;34722;52.108;5.044;2023-06-14T09:18:02;7.45;;;3.10;;
48911;SDS011;34722;52.108;5.044;2023-06-14T09:20:31;7.05;;;3.13;;
48911;SDS011;34722;52.108;5.044;2023-06-14T09:23:23;4.93;;;3.03;;
48911;SDS011;34722;52.108;5.044;2023-06-14T09:25:52;7.38;;;3.22;;
48911;SDS011;34722;52.108;5.044;2023-06-14T09:28:26;5.03;;;2.85;;
48911;SDS011;34722;52.108;5.044;2023-06-14T09:30:59;5.32;;;3.05;;
48911;SDS011;34722;52.108;5.044;2023-06-14T09:33:34;3.65;;;2.63;;
48911;SDS011;34722;52.108;5.044;2023-06-14T09:36:04;3.90;;;3.47;;
48911;SDS011;34722;52.108;5.044;2023-06-14T09:42:14;3.20;;;2.90;;
48911;SDS011;34722;52.108;5.044;2023-06-14T09:44:15;6.70;;;3.70;;
48911;SDS011;34722;52.108;5.044;2023-06-14T09:46:45;2.92;;;2.50;;
48911;SDS011;34722;52.108;5.044;2023-06-14T09:49:14;5.38;;;2.60;;
48911;SDS011;34722;52.108;5.044;2023-06-14T09:51:45;2.20;;;1.98;;
48911;SDS011;34722;52.108;5.044;2023-06-14T09:54:20;2.97;;;2.20;;
48911;SDS011;34722;52.108;5.044;2023-06-14T09:56:48;8.10;;;3.00;;
48911;SDS011;34722;52.108;5.044;2023-06-14T09:59:25;5.32;;;2.20;;
48911;SDS011;34722;52.108;5.044;2023-06-14T10:01:57;4.00;;;2.25;;
48911;SDS011;34722;52.108;5.044;2023-06-14T10:04:25;3.67;;;2.60;;
48911;SDS011;34722;52.108;5.044;2023-06-14T10:07:02;4.55;;;2.85;;
48911;SDS011;34722;52.108;5.044;2023-06-14T10:09:30;2.58;;;2.38;;
48911;SDS011;34722;52.108;5.044;2023-06-14T10:12:11;2.47;;;2.28;;
48911;SDS011;34722;52.108;5.044;2023-06-14T10:15:17;2.80;;;2.30;;
48911;SDS011;34722;52.108;5.044;2023-06-14T10:18:19;3.60;;;2.72;;
48911;SDS011;34722;52.108;5.044;2023-06-14T10:23:58;8.68;;;2.55;;
48911;SDS011;34722;52.108;5.044;2023-06-14T10:26:31;2.40;;;2.15;;
48911;SDS011;34722;52.108;5.044;2023-06-14T10:28:57;3.08;;;2.60;;
48911;SDS011;34722;52.108;5.044;2023-06-14T10:34:14;4.07;;;2.63;;
48911;SDS011;34722;52.108;5.044;2023-06-14T10:37:04;2.30;;;2.17;;
48911;SDS011;34722;52.108;5.044;2023-06-14T10:39:39;2.92;;;2.35;;
48911;SDS011;34722;52.108;5.044;2023-06-14T10:42:14;3.00;;;1.92;;
48911;SDS011;34722;52.108;5.044;2023-06-14T10:47:19;7.90;;;4.30;;
48911;SDS011;34722;52.108;5.044;2023-06-14T10:52:40;3.72;;;2.20;;
48911;SDS011;34722;52.108;5.044;2023-06-14T10:55:10;3.00;;;2.15;;
48911;SDS011;34722;52.108;5.044;2023-06-14T10:57:43;2.47;;;2.28;;
48911;SDS011;34722;52.108;5.044;2023-06-14T11:00:13;3.60;;;2.22;;
48911;SDS011;34722;52.108;5.044;2023-06-14T11:10:50;2.95;;;2.50;;
48911;SDS011;34722;52.108;5.044;2023-06-14T11:13:22;7.53;;;3.05;;
48911;SDS011;34722;52.108;5.044;2023-06-14T11:15:57;5.68;;;2.50;;
48911;SDS011;34722;52.108;5.044;2023-06-14T11:18:26;2.65;;;2.20;;
48911;SDS011;34722;52.108;5.044;2023-06-14T11:20:56;4.18;;;2.42;;
48911;SDS011;34722;52.108;5.044;2023-06-14T11:23:22;7.63;;;2.50;;
48911;SDS011;34722;52.108;5.044;2023-06-14T11:25:52;3.72;;;2.42;;
48911;SDS011;34722;52.108;5.044;2023-06-14T11:31:43;3.00;;;1.95;;
48911;SDS011;34722;52.108;5.044;2023-06-14T11:35:00;4.78;;;2.83;;
48911;SDS011;34722;52.108;5.044;2023-06-14T11:37:27;2.67;;;2.20;;
48911;SDS011;34722;52.108;5.044;2023-06-14T11:39:58;2.47;;;2.25;;
48911;SDS011;34722;52.108;5.044;2023-06-14T11:42:28;5.00;;;2.38;;
48911;SDS011;34722;52.108;5.044;2023-06-14T11:44:58;7.35;;;2.67;;
48911;SDS011;34722;52.108;5.044;2023-06-14T11:47:25;2.53;;;2.00;;
48911;SDS011;34722;52.108;5.044;2023-06-14T11:50:04;2.35;;;2.13;;
48911;SDS011;34722;52.108;5.044;2023-06-14T11:52:34;3.38;;;2.60;;
48911;SDS011;34722;52.108;5.044;2023-06-14T11:55:17;3.40;;;2.20;;
48911;SDS011;34722;52.108;5.044;2023-06-14T11:57:55;5.72;;;2.22;;
48911;SDS011;34722;52.108;5.044;2023-06-14T12:00:32;3.63;;;2.78;;
48911;SDS011;34722;52.108;5.044;2023-06-14T12:03:00;6.10;;;2.28;;
48911;SDS011;34722;52.108;5.044;2023-06-14T12:05:35;4.00;;;2.30;;
48911;SDS011;34722;52.108;5.044;2023-06-14T12:08:18;3.22;;;2.17;;
48911;SDS011;34722;52.108;5.044;2023-06-14T12:18:41;3.03;;;2.72;;
48911;SDS011;34722;52.108;5.044;2023-06-14T12:21:16;2.55;;;2.22;;
48911;SDS011;34722;52.108;5.044;2023-06-14T12:24:03;2.80;;;2.60;;
48911;SDS011;34722;52.108;5.044;2023-06-14T12:26:40;3.40;;;2.20;;
48911;SDS011;34722;52.108;5.044;2023-06-14T12:29:09;6.55;;;2.15;;
48911;SDS011;34722;52.108;5.044;2023-06-14T12:31:38;6.00;;;3.10;;
48911;SDS011;34722;52.108;5.044;2023-06-14T12:34:04;5.18;;;2.15;;
48911;SDS011;34722;52.108;5.044;2023-06-14T12:36:43;2.70;;;2.50;;
48911;SDS011;34722;52.108;5.044;2023-06-14T12:42:23;4.97;;;2.50;;
48911;SDS011;34722;52.108;5.044;2023-06-14T12:45:00;4.30;;;2.50;;
48911;SDS011;34722;52.108;5.044;2023-06-14T12:47:50;2.70;;;2.45;;
48911;SDS011;34722;52.108;5.044;2023-06-14T12:50:38;4.13;;;2.60;;
48911;SDS011;34722;52.108;5.044;2023-06-14T12:53:24;3.13;;;2.50;;
48911;SDS011;34722;52.108;5.044;2023-06-14T12:56:00;3.17;;;2.30;;
48911;SDS011;34722;52.108;5.044;2023-06-14T12:58:26;4.57;;;2.55;;
48911;SDS011;34722;52.108;5.044;2023-06-14T13:03:25;4.57;;;2.40;;
48911;SDS011;34722;52.108;5.044;2023-06-14T13:05:52;2.58;;;2.38;;
48911;SDS011;34722;52.108;5.044;2023-06-14T13:08:21;5.57;;;2.53;;
48911;SDS011;34722;52.108;5.044;2023-06-14T13:16:12;3.45;;;2.08;;
48911;SDS011;34722;52.108;5.044;2023-06-14T13:18:39;3.83;;;2.38;;
48911;SDS011;34722;52.108;5.044;2023-06-14T13:23:38;3.15;;;2.30;;
48911;SDS011;34722;52.108;5.044;2023-06-14T13:26:11;5.55;;;2.33;;
48911;SDS011;34722;52.108;5.044;2023-06-14T13:28:37;2.60;;;2.40;;
48911;SDS011;34722;52.108;5.044;2023-06-14T13:31:03;2.97;;;2.58;;
48911;SDS011;34722;52.108;5.044;2023-06-14T13:33:39;2.38;;;2.15;;
48911;SDS011;34722;52.108;5.044;2023-06-14T13:36:07;3.78;;;2.42;;
48911;SDS011;34722;52.108;5.044;2023-06-14T13:41:27;3.13;;;2.30;;
48911;SDS011;34722;52.108;5.044;2023-06-14T13:44:04;6.32;;;2.80;;
48911;SDS011;34722;52.108;5.044;2023-06-14T13:47:00;6.00;;;2.97;;
48911;SDS011;34722;52.108;5.044;2023-06-14T13:49:26;3.58;;;2.17;;
48911;SDS011;34722;52.108;5.044;2023-06-14T13:52:02;10.88;;;2.58;;
48911;SDS011;34722;52.108;5.044;2023-06-14T14:01:28;4.55;;;2.60;;
48911;SDS011;34722;52.108;5.044;2023-06-14T14:04:04;2.80;;;2.50;;
48911;SDS011;34722;52.108;5.044;2023-06-14T14:07:27;5.38;;;2.35;;
48911;SDS011;34722;52.108;5.044;2023-06-14T14:10:11;2.97;;;2.15;;
48911;SDS011;34722;52.108;5.044;2023-06-14T14:12:48;3.95;;;1.77;;
48911;SDS011;34722;52.108;5.044;2023-06-14T14:15:23;3.45;;;2.40;;
48911;SDS011;34722;52.108;5.044;2023-06-14T14:17:55;5.63;;;2.30;;
48911;SDS011;34722;52.108;5.044;2023-06-14T15:17:53;3.05;;;2.42;;
48911;SDS011;34722;52.108;5.044;2023-06-14T15:20:19;5.50;;;2.78;;
48911;SDS011;34722;52.108;5.044;2023-06-14T15:22:45;3.97;;;2.78;;
48911;SDS011;34722;52.108;5.044;2023-06-14T15:25:18;2.78;;;1.80;;
48911;SDS011;34722;52.108;5.044;2023-06-14T15:27:46;3.22;;;2.22;;
48911;SDS011;34722;52.108;5.044;2023-06-14T15:30:18;5.07;;;2.72;;
48911;SDS011;34722;52.108;5.044;2023-06-14T15:32:48;3.28;;;2.25;;
48911;SDS011;34722;52.108;5.044;2023-06-14T15:35:17;3.88;;;2.10;;
48911;SDS011;34722;52.108;5.044;2023-06-14T15:37:43;3.80;;;2.03;;
48911;SDS011;34722;52.108;5.044;2023-06-14T15:40:10;4.47;;;2.83;;
48911;SDS011;34722;52.108;5.044;2023-06-14T15:42:36;3.78;;;2.28;;
48911;SDS011;34722;52.108;5.044;2023-06-14T15:45:02;3.00;;;2.80;;
48911;SDS011;34722;52.108;5.044;2023-06-14T15:47:32;5.15;;;2.05;;
48911;SDS011;34722;52.108;5.044;2023-06-14T15:49:58;2.28;;;2.13;;
48911;SDS011;34722;52.108;5.044;2023-06-14T15:52:24;2.90;;;1.98;;
48911;SDS011;34722;52.108;5.044;2023-06-14T15:54:50;3.05;;;2.00;;
48911;SDS011;34722;52.108;5.044;2023-06-14T15:57:20;2.63;;;2.22;;
48911;SDS011;34722;52.108;5.044;2023-06-14T15:59:47;3.20;;;2.22;;
48911;SDS011;34722;52.108;5.044;2023-06-14T16:02:15;15.45;;;10.68;;
48911;SDS011;34722;52.108;5.044;2023-06-14T16:04:41;3.97;;;2.15;;
48911;SDS011;34722;52.108;5.044;2023-06-14T16:07:07;2.05;;;1.85;;
48911;SDS011;34722;52.108;5.044;2023-06-14T16:09:39;4.15;;;1.63;;
48911;SDS011;34722;52.108;5.044;2023-06-14T16:12:20;3.28;;;2.13;;
48911;SDS011;34722;52.108;5.044;2023-06-14T16:14:46;5.10;;;1.90;;
48911;SDS011;34722;52.108;5.044;2023-06-14T16:17:23;2.55;;;2.17;;
48911;SDS011;34722;52.108;5.044;2023-06-14T16:19:52;3.97;;;2.33;;
48911;SDS011;34722;52.108;5.044;2023-06-14T16:22:18;3.45;;;1.88;;
48911;SDS011;34722;52.108;5.044;2023-06-14T16:24:47;4.00;;;1.80;;
48911;SDS011;34722;52.108;5.044;2023-06-14T16:27:13;4.25;;;2.17;;
48911;SDS011;34722;52.108;5.044;2023-06-14T16:29:39;3.65;;;1.92;;
48911;SDS011;34722;52.108;5.044;2023-06-14T16:32:06;2.15;;;1.92;;
48911;SDS011;34722;52.108;5.044;2023-06-14T16:34:32;2.22;;;2.00;;
48911;SDS011;34722;52.108;5.044;2023-06-14T16:37:01;1.98;;;1.88;;
48911;SDS011;34722;52.108;5.044;2023-06-14T16:39:27;3.90;;;1.90;;
48911;SDS011;34722;52.108;5.044;2023-06-14T16:41:54;3.90;;;2.13;;
48911;SDS011;34722;52.108;5.044;2023-06-14T16:44:22;3.95;;;2.30;;
48911;SDS011;34722;52.108;5.044;2023-06-14T16:46:49;5.35;;;2.42;;
48911;SDS011;34722;52.108;5.044;2023-06-14T16:49:18;2.60;;;2.25;;
48911;SDS011;34722;52.108;5.044;2023-06-14T16:51:47;1.88;;;1.75;;
48911;SDS011;34722;52.108;5.044;2023-06-14T16:54:19;3.30;;;1.92;;
48911;SDS011;34722;52.108;5.044;2023-06-14T16:56:48;3.42;;;1.75;;
48911;SDS011;34722;52.108;5.044;2023-06-14T16:59:25;2.28;;;2.00;;
48911;SDS011;34722;52.108;5.044;2023-06-14T17:02:03;4.03;;;1.80;;